createdAt,value
2023-02-24T00:03:05.240Z,69.75
2023-02-24T00:08:02.204Z,69.62
2023-02-24T00:13:02.142Z,69.73
2023-02-24T00:18:06.036Z,70.38
2023-02-24T00:23:02.046Z,69.43
2023-02-24T00:28:01.888Z,70.17
2023-02-24T00:33:03.153Z,70.03
2023-02-24T00:38:01.885Z,69.85
2023-02-24T00:43:01.691Z,69.77
2023-02-24T00:48:03.673Z,69.59
2023-02-24T00:53:02.033Z,69.58
2023-02-24T00:58:03.168Z,69.54
2023-02-24T01:03:02.613Z,69.47
2023-02-24T01:08:02.118Z,69.92
2023-02-24T01:13:01.909Z,69.81
2023-02-24T01:18:01.854Z,70.03
2023-02-24T01:23:02.436Z,70.02
2023-02-24T01:28:01.661Z,70.04
2023-02-24T01:33:02.147Z,69.87
2023-02-24T01:38:01.944Z,70.11
2023-02-24T01:43:07.787Z,70.36
2023-02-24T01:48:04.751Z,70.23
2023-02-24T01:53:05.792Z,70.34
2023-02-24T01:58:07.937Z,70.21
2023-02-24T02:03:07.081Z,70.43
2023-02-24T02:08:02.605Z,70.51
2023-02-24T02:13:03.696Z,70.34
2023-02-24T02:18:11.071Z,70.93
2023-02-24T02:23:19.291Z,70.62
2023-02-24T02:28:18.920Z,70.25
2023-02-24T02:32:52.761Z,70.20
2023-02-24T02:33:26.385Z,70.20
2023-02-24T02:36:24.061Z,70.20
2023-02-24T02:38:11.382Z,70.48
2023-02-24T02:43:10.523Z,70.23
2023-02-24T02:48:06.882Z,70.11
2023-02-24T02:49:15.938Z,70.11
2023-02-24T02:53:06.536Z,70.22
2023-02-24T02:58:06.841Z,70.15
2023-02-24T03:03:06.825Z,70.13
2023-02-24T03:08:05.215Z,70.30
2023-02-24T03:13:05.131Z,70.63
2023-02-24T03:18:09.293Z,70.88
2023-02-24T03:23:06.323Z,71.33
2023-02-24T03:28:07.428Z,71.82
2023-02-24T03:33:06.345Z,72.24
2023-02-24T03:38:02.980Z,73.22
2023-02-24T03:43:05.780Z,73.66
2023-02-24T03:48:03.188Z,74.13
2023-02-24T03:53:14.821Z,74.41
2023-02-24T03:58:11.768Z,75.98
2023-02-24T04:03:08.691Z,76.08
2023-02-24T04:08:04.380Z,76.13
2023-02-24T04:13:13.340Z,76.46
2023-02-24T04:18:07.817Z,77.25
2023-02-24T04:23:07.872Z,77.66
2023-02-24T04:28:03.570Z,78.41
2023-02-24T04:33:02.159Z,79.37
2023-02-24T04:38:01.575Z,80.82
2023-02-24T04:43:02.619Z,80.73
2023-02-24T04:48:02.922Z,81.76
2023-02-24T04:53:06.034Z,82.77
2023-02-24T04:58:01.872Z,83.47
2023-02-24T04:59:56.649Z,83.47
2023-02-24T05:03:03.786Z,84.16
2023-02-24T05:08:03.944Z,83.97
2023-02-24T05:13:02.588Z,83.93
2023-02-24T05:18:06.728Z,84.71
2023-02-24T05:23:01.916Z,85.10
2023-02-24T05:28:03.083Z,85.84
2023-02-24T05:33:02.750Z,86.51
2023-02-24T05:38:02.567Z,86.70
2023-02-24T05:43:04.076Z,86.82
2023-02-24T05:48:04.845Z,86.96
2023-02-24T05:53:02.428Z,86.92
2023-02-24T05:58:05.329Z,87.73
2023-02-24T06:03:07.588Z,87.30
2023-02-24T06:08:05.515Z,87.62
2023-02-24T06:13:01.657Z,88.19
2023-02-24T06:18:01.497Z,88.44
2023-02-24T06:23:04.289Z,88.28
2023-02-24T06:28:01.606Z,88.98
2023-02-24T06:33:01.625Z,88.55
2023-02-24T06:38:02.299Z,89.24
2023-02-24T06:43:01.845Z,88.98
2023-02-24T06:48:02.556Z,89.33
2023-02-24T06:53:01.720Z,89.32
2023-02-24T06:58:03.515Z,89.14
2023-02-24T07:03:12.237Z,88.93
2023-02-24T07:08:01.419Z,89.57
2023-02-24T07:13:01.988Z,89.17
2023-02-24T07:18:02.198Z,89.50
2023-02-24T07:23:05.756Z,89.39
2023-02-24T07:28:01.345Z,90.12
2023-02-24T07:33:03.010Z,90.57
2023-02-24T07:38:04.049Z,90.27
2023-02-24T07:43:02.260Z,90.08
2023-02-24T07:48:01.519Z,90.54
2023-02-24T07:53:04.043Z,90.21
2023-02-24T07:58:01.900Z,90.33
2023-02-24T08:03:01.386Z,90.42
2023-02-24T08:08:02.186Z,89.43
2023-02-24T08:13:02.260Z,90.09
2023-02-24T08:18:01.402Z,89.98
2023-02-24T08:23:05.372Z,89.68
2023-02-24T08:28:09.427Z,89.47
2023-02-24T08:33:01.664Z,89.67
2023-02-24T08:38:04.694Z,89.21
2023-02-24T08:43:14.425Z,88.98
2023-02-24T08:48:11.173Z,89.57
2023-02-24T08:53:01.854Z,89.68
2023-02-24T08:58:01.335Z,89.76
2023-02-24T09:03:07.368Z,89.85
2023-02-24T09:08:01.482Z,89.37
2023-02-24T09:13:07.618Z,89.12
2023-02-24T09:13:41.992Z,89.12
2023-02-24T09:18:06.485Z,89.50
2023-02-24T09:23:02.890Z,89.64
2023-02-24T09:28:07.070Z,89.76
2023-02-24T09:33:05.444Z,90.06
2023-02-24T09:38:04.648Z,90.02
2023-02-24T09:43:10.176Z,90.36
2023-02-24T09:48:16.824Z,90.01
2023-02-24T09:53:11.621Z,90.14
2023-02-24T09:58:18.112Z,90.28
2023-02-24T10:03:18.545Z,90.58
2023-02-24T10:08:01.313Z,90.52
2023-02-24T10:13:12.740Z,90.37
2023-02-24T10:18:26.212Z,90.53
2023-02-24T10:23:08.826Z,90.24
2023-02-24T10:28:10.750Z,89.76
2023-02-24T10:33:04.659Z,90.07
2023-02-24T10:38:04.386Z,90.09
2023-02-24T10:43:09.404Z,89.58
2023-02-24T10:48:06.846Z,89.26
2023-02-24T10:53:14.921Z,89.11
2023-02-24T10:58:05.341Z,88.70
2023-02-24T11:03:09.649Z,88.48
2023-02-24T11:08:22.059Z,88.70
2023-02-24T11:13:11.171Z,89.28
2023-02-24T11:18:02.491Z,88.66
2023-02-24T11:23:07.599Z,87.63
2023-02-24T11:28:02.091Z,86.57
2023-02-24T11:33:14.606Z,86.61
2023-02-24T11:38:11.605Z,86.59
2023-02-24T11:43:06.370Z,86.24
2023-02-24T11:48:05.227Z,86.01
2023-02-24T11:53:11.376Z,85.73
2023-02-24T11:58:06.945Z,85.27
2023-02-24T12:03:12.053Z,84.48
2023-02-24T12:08:09.170Z,83.75
2023-02-24T12:13:10.466Z,83.33
2023-02-24T12:18:06.777Z,82.76
2023-02-24T12:23:14.742Z,81.90
2023-02-24T12:28:15.832Z,81.07
2023-02-24T12:33:11.877Z,80.68
2023-02-24T12:38:17.670Z,81.18
2023-02-24T12:43:11.892Z,80.88
2023-02-24T12:48:12.453Z,79.06
2023-02-24T12:53:12.636Z,77.15
2023-02-24T12:58:08.377Z,78.00
2023-02-24T13:03:11.954Z,77.41
2023-02-24T13:08:14.549Z,77.88
2023-02-24T13:13:09.777Z,77.93
2023-02-24T13:18:01.450Z,77.50
2023-02-24T13:23:03.975Z,77.50
2023-02-24T13:28:03.322Z,76.73
2023-02-24T13:33:05.025Z,76.51
2023-02-24T13:38:19.931Z,76.66
2023-02-24T13:43:03.686Z,77.09
2023-02-24T13:48:14.746Z,77.68
2023-02-24T13:53:18.272Z,77.24
2023-02-24T13:58:17.509Z,76.99
2023-02-24T14:03:08.279Z,75.95
2023-02-24T14:08:02.598Z,75.66
2023-02-24T14:13:05.478Z,75.66
2023-02-24T14:18:04.073Z,75.95
2023-02-24T14:23:01.532Z,75.99
2023-02-24T14:28:01.599Z,75.78
2023-02-24T14:33:03.014Z,75.12
2023-02-24T14:38:02.571Z,75.01
2023-02-24T14:43:02.763Z,75.06
2023-02-24T14:48:01.064Z,75.02
2023-02-24T14:53:05.190Z,75.52
2023-02-24T14:58:08.899Z,74.99
2023-02-24T15:03:10.166Z,74.88
2023-02-24T15:08:02.864Z,74.98
2023-02-24T15:13:09.834Z,75.08
2023-02-24T15:18:08.785Z,75.21
2023-02-24T15:23:01.768Z,75.30
2023-02-24T15:28:02.958Z,75.17
2023-02-24T15:33:04.918Z,74.62
2023-02-24T15:38:01.687Z,74.51
2023-02-24T15:43:09.231Z,74.52
2023-02-24T15:48:03.050Z,74.50
2023-02-24T15:53:03.907Z,74.00
2023-02-24T15:58:02.726Z,73.45
2023-02-24T16:03:01.217Z,73.52
2023-02-24T16:08:01.234Z,73.78
2023-02-24T16:13:01.697Z,74.02
2023-02-24T16:18:01.743Z,74.15
2023-02-24T16:23:03.743Z,74.45
2023-02-24T16:28:01.269Z,74.69
2023-02-24T16:33:01.352Z,74.78
2023-02-24T16:38:00.923Z,73.57
2023-02-24T16:43:01.318Z,73.61
2023-02-24T16:48:04.946Z,73.28
2023-02-24T16:53:01.188Z,72.72
2023-02-24T16:58:01.267Z,72.76
2023-02-24T17:03:05.802Z,71.64
2023-02-24T17:08:00.897Z,71.29
2023-02-24T17:13:01.350Z,71.07
2023-02-24T17:18:01.008Z,71.46
2023-02-24T17:23:01.357Z,71.37
2023-02-24T17:28:01.151Z,71.57
2023-02-24T17:33:01.424Z,71.58
2023-02-24T17:38:01.677Z,71.82
2023-02-24T17:43:01.601Z,72.06
2023-02-24T17:47:48.766Z,72.33
2023-02-24T17:48:00.972Z,72.33
2023-02-24T17:53:01.050Z,72.22
2023-02-24T17:58:01.311Z,72.11
2023-02-24T18:03:03.301Z,71.81
2023-02-24T18:08:00.922Z,71.86
2023-02-24T18:13:01.468Z,71.72
2023-02-24T18:18:00.926Z,71.54
2023-02-24T18:23:01.058Z,71.47
2023-02-24T18:28:01.346Z,71.65
2023-02-24T18:33:01.311Z,71.42
2023-02-24T18:38:01.958Z,71.48
2023-02-24T18:43:01.110Z,71.04
2023-02-24T18:48:04.023Z,70.56
2023-02-24T18:53:01.012Z,70.60
2023-02-24T18:58:01.285Z,70.47
2023-02-24T19:03:01.105Z,70.57
2023-02-24T19:08:01.263Z,70.87
2023-02-24T19:13:01.377Z,71.11
2023-02-24T19:18:01.325Z,71.04
2023-02-24T19:23:01.034Z,71.29
2023-02-24T19:28:01.114Z,71.49
2023-02-24T19:33:01.155Z,71.70
2023-02-24T19:38:00.978Z,71.95
2023-02-24T19:43:00.990Z,72.08
2023-02-24T19:48:00.846Z,72.31
2023-02-24T19:53:01.224Z,72.56
2023-02-24T19:58:01.220Z,72.66
2023-02-24T20:02:29.340Z,72.82
2023-02-24T20:03:00.766Z,72.82
2023-02-24T20:08:00.953Z,72.96
2023-02-24T20:13:01.071Z,73.15
2023-02-24T20:18:03.642Z,73.33
2023-02-24T20:23:00.892Z,73.66
2023-02-24T20:28:01.324Z,73.88
2023-02-24T20:28:29.075Z,73.88
2023-02-24T20:31:06.634Z,73.88
2023-02-24T20:33:00.763Z,74.05
2023-02-24T20:38:00.774Z,74.00
2023-02-24T20:43:01.170Z,74.18
2023-02-24T20:48:00.809Z,73.87
2023-02-24T20:52:51.117Z,73.83
2023-02-24T20:53:03.072Z,73.83
2023-02-24T20:56:35.420Z,73.83
2023-02-24T20:58:01.001Z,74.01
2023-02-24T21:01:22.143Z,74.01
2023-02-24T21:03:02.403Z,74.31
2023-02-24T21:05:34.899Z,74.31
2023-02-24T21:08:00.984Z,73.89
2023-02-24T21:13:00.867Z,74.13
2023-02-24T21:14:06.128Z,74.13
2023-02-24T21:18:01.101Z,74.11
2023-02-24T21:19:58.079Z,74.11
2023-02-24T21:23:01.970Z,73.47
2023-02-24T21:28:00.725Z,72.97
2023-02-24T21:31:42.808Z,72.97
2023-02-24T21:33:02.790Z,72.65
2023-02-24T21:38:00.764Z,72.31
2023-02-24T21:43:01.652Z,72.03
2023-02-24T21:48:00.714Z,71.79
2023-02-24T21:53:00.805Z,71.54
2023-02-24T21:58:01.053Z,71.59
2023-02-24T22:03:01.066Z,71.38
2023-02-24T22:08:00.959Z,71.37
2023-02-24T22:13:01.028Z,71.49
2023-02-24T22:18:00.658Z,71.47
2023-02-24T22:23:00.724Z,71.34
2023-02-24T22:28:03.248Z,71.67
2023-02-24T22:33:00.858Z,71.85
2023-02-24T22:38:00.912Z,72.08
2023-02-24T22:43:00.825Z,72.67
2023-02-24T22:48:00.801Z,73.07
2023-02-24T22:53:00.624Z,73.17
2023-02-24T22:58:00.838Z,74.02
2023-02-24T23:03:00.748Z,74.50
2023-02-24T23:08:02.480Z,75.59
2023-02-24T23:13:01.145Z,75.81
2023-02-24T23:18:01.580Z,76.17
2023-02-24T23:23:00.800Z,75.62
2023-02-24T23:28:01.027Z,75.48
2023-02-24T23:33:01.237Z,75.24
2023-02-24T23:38:00.683Z,74.77
2023-02-24T23:43:01.138Z,74.37
2023-02-24T23:48:00.793Z,74.41
2023-02-24T23:53:00.884Z,74.33
2023-02-24T23:58:01.397Z,74.49
